Time;durP1;ratioP1;P1;durP2;ratioP2;P2;SDS_P1;SDS_P2;PMS_P1;PMS_P2;Temp;Humidity;BMP_temperature;BMP_pressure;BME280_temperature;BME280_humidity;BME280_pressure;Samples;Min_cycle;Max_cycle;Signal;HPM_P1;HPM_P2
2021/11/25 00:01:14;;;;;;;;;;;;;;;0.98;58.92;100493.75;4389897;32;33372;-94
2021/11/25 00:04:05;;;;;;;;;;;;;;;0.99;58.98;100490.28;4392861;32;33708;-93
2021/11/25 00:06:44;;;;;;;;;;;;;;;1.22;58.01;100488.69;4426333;32;33895;-93
2021/11/25 00:09:35;;;;;;;;;;;;;;;1.09;58.24;100484.28;4398567;32;32337;-93
2021/11/25 00:12:14;;;;;;;;;;;;;;;1.00;58.68;100477.31;4399247;32;32613;-94
2021/11/25 00:15:05;;;;;;;;;;;;;;;1.35;57.31;100473.16;4381368;32;33555;-93
2021/11/25 00:17:44;;;;;;;;;;;;;;;0.99;57.90;100474.69;4422947;32;33051;-93
2021/11/25 00:20:35;;;;;;;;;;;;;;;0.88;58.68;100477.22;4340615;32;32750;-91
2021/11/25 00:23:14;;;;;;;;;;;;;;;0.96;58.58;100470.34;4365284;32;33911;-92
2021/11/25 00:26:06;;;;;;;;;;;;;;;0.88;59.12;100471.16;4365973;32;32903;-93
2021/11/25 00:28:45;;;;;;;;;;;;;;;0.79;59.28;100471.09;4396635;32;32813;-91
2021/11/25 00:31:36;;;;;;;;;;;;;;;0.91;58.40;100466.88;4372981;32;32182;-91
2021/11/25 00:34:15;;;;;;;;;;;;;;;0.84;58.65;100469.41;4390768;32;32791;-91
2021/11/25 00:37:06;;;;;;;;;;;;;;;0.63;58.56;100473.59;4383395;32;33209;-93
2021/11/25 00:39:45;;;;;;;;;;;;;;;0.51;59.18;100479.56;4356250;32;33931;-93
2021/11/25 00:42:36;;;;;;;;;;;;;;;0.51;59.13;100478.69;4378763;32;33355;-91
2021/11/25 00:45:16;;;;;;;;;;;;;;;0.67;59.18;100485.78;4395387;32;32815;-93
2021/11/25 00:48:07;;;;;;;;;;;;;;;0.71;58.99;100479.75;4383498;32;33758;-93
2021/11/25 00:50:47;;;;;;;;;;;;;;;0.69;58.90;100476.25;4397113;32;33149;-92
2021/11/25 00:53:38;;;;;;;;;;;;;;;0.86;58.33;100475.50;4396417;32;32145;-93
2021/11/25 00:56:17;;;;;;;;;;;;;;;0.60;58.70;100485.69;4400000;32;32897;-93
2021/11/25 00:59:08;;;;;;;;;;;;;;;0.65;59.05;100478.81;4400305;32;33349;-92
2021/11/25 01:01:47;;;;;;;;;;;;;;;0.82;58.47;100465.94;4386404;32;33435;-92
2021/11/25 01:08:41;;;;;;;;;;;;;;;0.57;58.71;100464.88;4380887;32;35819;-92
2021/11/25 01:11:32;;;;;;;;;;;;;;;0.52;59.26;100464.84;4371446;32;33466;-95
2021/11/25 01:14:11;;;;;;;;;;;;;;;0.31;60.00;100455.16;4393977;32;32839;-92
2021/11/25 01:17:02;;;;;;;;;;;;;;;0.61;58.87;100456.25;4381880;32;32438;-90
2021/11/25 01:19:44;;;;;;;;;;;;;;;0.71;58.40;100443.34;4371738;32;27764;-91
2021/11/25 01:22:26;;;;;;;;;;;;;;;0.65;59.04;100448.47;4390866;32;34217;-91
2021/11/25 01:25:08;;;;;;;;;;;;;;;0.65;59.10;100448.47;4404988;32;34407;-91
2021/11/25 01:27:51;;;;;;;;;;;;;;;0.86;58.03;100439.09;4373368;32;33740;-90
2021/11/25 01:30:43;;;;;;;;;;;;;;;0.90;57.35;100433.03;4399238;32;33082;-94
2021/11/25 01:33:29;;;;;;;;;;;;;;;0.62;58.34;100432.00;4359528;32;31944;-90
2021/11/25 01:36:13;;;;;;;;;;;;;;;0.55;58.81;100430.22;4377538;32;32680;-91
2021/11/25 01:38:55;;;;;;;;;;;;;;;0.50;59.64;100428.47;4390818;32;33477;-92
2021/11/25 01:41:47;;;;;;;;;;;;;;;0.54;60.58;100429.34;4377546;32;34845;-94
2021/11/25 01:44:26;;;;;;;;;;;;;;;0.77;59.69;100430.37;4373181;32;33034;-94
2021/11/25 01:47:17;;;;;;;;;;;;;;;1.08;58.54;100417.53;4372052;32;32835;-90
2021/11/25 01:49:56;;;;;;;;;;;;;;;1.02;59.05;100423.56;4405993;32;32615;-92
2021/11/25 01:52:47;;;;;;;;;;;;;;;1.36;58.31;100420.25;4393538;32;32504;-92
2021/11/25 01:55:26;;;;;;;;;;;;;;;0.70;60.73;100417.31;4368000;32;33133;-91
2021/11/25 01:58:18;;;;;;;;;;;;;;;1.09;60.09;100413.19;4375579;32;34250;-90
2021/11/25 02:05:00;;;;;;;;;;;;;;;1.36;59.61;100415.03;4412964;32;35101;-95
2021/11/25 02:07:53;;;;;;;;;;;;;;;1.15;60.93;100408.91;4381337;32;33992;-95
2021/11/25 02:10:32;;;;;;;;;;;;;;;1.17;61.30;100406.31;4371203;32;33039;-95
2021/11/25 02:13:23;;;;;;;;;;;;;;;1.22;61.62;100389.84;4366414;32;32556;-95
2021/11/25 02:16:14;;;;;;;;;;;;;;;1.10;62.80;100387.22;4355318;32;32468;-94
2021/11/25 02:19:06;;;;;;;;;;;;;;;1.81;60.41;100375.25;4398998;32;33281;-95
2021/11/25 02:21:45;;;;;;;;;;;;;;;1.70;60.69;100357.00;4399723;32;33857;-96
2021/11/25 02:24:37;;;;;;;;;;;;;;;1.47;62.09;100363.88;4383554;32;32113;-96
2021/11/25 02:27:18;;;;;;;;;;;;;;;1.77;61.31;100358.75;4414642;32;33120;-96
2021/11/25 02:30:10;;;;;;;;;;;;;;;1.36;62.79;100350.00;4383925;32;32884;-95
2021/11/25 02:32:49;;;;;;;;;;;;;;;1.67;62.40;100341.38;4377864;32;33713;-96
2021/11/25 02:35:32;;;;;;;;;;;;;;;1.84;61.63;100341.38;4382407;32;32791;-95
2021/11/25 02:38:23;;;;;;;;;;;;;;;1.75;62.04;100343.97;4386212;32;32565;-95
2021/11/25 02:41:02;;;;;;;;;;;;;;;2.15;60.79;100334.44;4398718;32;32779;-95
2021/11/25 02:43:56;;;;;;;;;;;;;;;1.87;62.02;100337.94;4385637;32;32894;-94
2021/11/25 02:46:35;;;;;;;;;;;;;;;2.19;60.90;100336.19;4382189;32;32599;-95
2021/11/25 02:53:31;;;;;;;;;;;;;;;2.23;60.96;100322.28;4430944;32;35462;-94
2021/11/25 02:56:23;;;;;;;;;;;;;;;2.02;62.81;100317.94;4365399;32;32646;-94
2021/11/25 02:59:02;;;;;;;;;;;;;;;2.50;62.58;100310.03;4402863;32;33606;-93
2021/11/25 03:05:57;;;;;;;;;;;;;;;2.46;62.27;100293.53;4397114;32;34965;-92
2021/11/25 03:08:48;;;;;;;;;;;;;;;2.39;63.36;100296.19;4384035;32;33428;-93
2021/11/25 03:11:39;;;;;;;;;;;;;;;2.50;64.29;100281.37;4391247;32;32349;-95
2021/11/25 03:14:30;;;;;;;;;;;;;;;2.63;63.86;100295.25;4372259;32;33594;-92
2021/11/25 03:17:09;;;;;;;;;;;;;;;2.79;64.82;100276.91;4380469;32;33081;-91
2021/11/25 03:19:38;;;;;;;;;;;;;;;3.13;64.59;100276.72;4381466;32;32880;-92
2021/11/25 03:22:10;;;;;;;;;;;;;;;3.01;66.21;100271.59;4381851;32;32061;-92
2021/11/25 03:24:39;;;;;;;;;;;;;;;2.63;68.52;100277.84;4386640;32;32908;-92
2021/11/25 03:27:21;;;;;;;;;;;;;;;2.93;67.78;100269.00;4430336;32;34014;-92
2021/11/25 03:30:03;;;;;;;;;;;;;;;3.03;68.06;100270.69;4428902;32;34190;-91
2021/11/25 03:32:58;;;;;;;;;;;;;;;2.97;68.70;100262.06;4399093;32;34066;-93
2021/11/25 03:35:38;;;;;;;;;;;;;;;2.85;68.80;100259.50;4405823;32;34910;-94
2021/11/25 03:38:35;;;;;;;;;;;;;;;3.00;68.35;100257.69;4414039;32;35357;-91
2021/11/25 03:41:14;;;;;;;;;;;;;;;3.31;67.66;100244.44;4393573;32;33349;-91
2021/11/25 03:44:06;;;;;;;;;;;;;;;3.44;67.05;100240.87;4354367;32;32384;-88
2021/11/25 03:46:35;;;;;;;;;;;;;;;3.83;65.54;100237.03;4351745;32;33784;-90
2021/11/25 03:49:03;;;;;;;;;;;;;;;3.73;65.48;100226.69;4325958;32;32773;-89
2021/11/25 03:51:31;;;;;;;;;;;;;;;3.97;64.69;100225.59;4342209;32;33637;-91
2021/11/25 03:54:22;;;;;;;;;;;;;;;3.57;65.89;100226.84;4354663;32;32608;-90
2021/11/25 03:57:09;;;;;;;;;;;;;;;3.41;66.92;100229.56;4359860;32;33141;-91
2021/11/25 03:59:38;;;;;;;;;;;;;;;3.50;66.28;100222.53;4357535;32;33009;-90
2021/11/25 04:02:06;;;;;;;;;;;;;;;3.83;65.45;100217.88;4344926;32;34473;-90
2021/11/25 04:04:37;;;;;;;;;;;;;;;3.38;66.30;100224.41;4356027;32;32035;-90
2021/11/25 04:07:05;;;;;;;;;;;;;;;3.83;65.15;100218.75;4361503;32;33029;-91
2021/11/25 04:09:32;;;;;;;;;;;;;;;3.28;66.79;100219.25;4344017;32;33674;-90
2021/11/25 04:12:01;;;;;;;;;;;;;;;3.43;66.83;100223.47;4353887;32;34113;-92
2021/11/25 04:14:29;;;;;;;;;;;;;;;3.65;66.06;100218.06;4366713;32;32444;-94
2021/11/25 04:17:21;;;;;;;;;;;;;;;3.68;65.93;100211.06;4354182;32;32829;-92
2021/11/25 04:20:01;;;;;;;;;;;;;;;4.19;63.98;100208.81;4340899;32;33812;-93
2021/11/25 04:26:32;;;;;;;;;;;;;;;3.70;65.44;100209.28;4379884;32;32166;-94
2021/11/25 04:29:24;;;;;;;;;;;;;;;3.89;65.15;100196.91;4404652;32;32691;-93
2021/11/25 04:35:32;;;;;;;;;;;;;;;3.30;67.24;100209.63;4373103;32;32708;-93
2021/11/25 04:38:12;;;;;;;;;;;;;;;3.73;65.79;100195.34;4411043;32;32186;-92
2021/11/25 04:41:03;;;;;;;;;;;;;;;3.53;66.31;100206.84;4353732;32;33130;-92
2021/11/25 04:43:42;;;;;;;;;;;;;;;3.58;66.17;100196.37;4392553;32;32910;-91
2021/11/25 04:46:33;;;;;;;;;;;;;;;3.51;66.68;100199.91;4369171;32;33107;-93
2021/11/25 04:49:12;;;;;;;;;;;;;;;3.76;65.88;100196.19;4410139;32;32275;-92
2021/11/25 04:52:03;;;;;;;;;;;;;;;3.71;66.10;100195.38;4398195;32;33232;-92
2021/11/25 04:54:43;;;;;;;;;;;;;;;3.71;66.40;100192.78;4398487;32;33527;-89
2021/11/25 04:57:30;;;;;;;;;;;;;;;3.86;65.21;100186.53;4382502;32;32894;-93
2021/11/25 05:00:10;;;;;;;;;;;;;;;3.87;65.50;100187.38;4422197;32;33486;-93
2021/11/25 05:03:02;;;;;;;;;;;;;;;3.84;65.40;100186.53;4369253;32;33170;-93
2021/11/25 05:05:41;;;;;;;;;;;;;;;3.77;65.65;100182.25;4404052;32;34529;-91
2021/11/25 05:08:32;;;;;;;;;;;;;;;3.56;66.63;100185.94;4391031;32;34907;-86
2021/11/25 05:10:59;;;;;;;;;;;;;;;3.71;66.27;100176.25;4400056;32;32250;-86
2021/11/25 05:13:27;;;;;;;;;;;;;;;3.87;65.50;100180.41;4399807;32;32983;-86
2021/11/25 05:15:54;;;;;;;;;;;;;;;3.94;65.08;100168.12;4387822;32;33655;-88
2021/11/25 05:18:21;;;;;;;;;;;;;;;3.51;66.56;100164.25;4375175;32;33077;-89
2021/11/25 05:20:49;;;;;;;;;;;;;;;3.89;65.18;100165.56;4375207;32;32343;-88
2021/11/25 05:23:16;;;;;;;;;;;;;;;4.10;64.85;100159.25;4375312;32;33996;-88
2021/11/25 05:25:43;;;;;;;;;;;;;;;3.75;65.84;100163.13;4375190;32;33566;-89
2021/11/25 05:28:11;;;;;;;;;;;;;;;3.91;64.98;100157.75;4387681;32;34250;-88
2021/11/25 05:30:39;;;;;;;;;;;;;;;3.85;65.12;100159.53;4387732;32;31989;-88
2021/11/25 05:33:06;;;;;;;;;;;;;;;3.63;65.93;100160.62;4390357;32;32868;-91
2021/11/25 05:35:58;;;;;;;;;;;;;;;3.71;66.02;100163.19;4397510;32;33288;-92
2021/11/25 05:38:37;;;;;;;;;;;;;;;3.66;65.95;100164.97;4411538;32;34086;-93
2021/11/25 05:41:28;;;;;;;;;;;;;;;3.74;66.20;100161.38;4398148;32;32803;-93
2021/11/25 05:44:07;;;;;;;;;;;;;;;4.02;64.83;100161.09;4380279;32;32803;-93
2021/11/25 05:46:58;;;;;;;;;;;;;;;3.90;65.20;100161.25;4402077;32;33405;-93
2021/11/25 05:49:45;;;;;;;;;;;;;;;3.89;65.28;100164.72;4404886;32;34236;-89
2021/11/25 05:52:13;;;;;;;;;;;;;;;3.49;66.72;100162.50;4407754;32;32448;-90
2021/11/25 05:54:40;;;;;;;;;;;;;;;3.97;65.12;100148.06;4396026;32;31944;-89
2021/11/25 05:57:09;;;;;;;;;;;;;;;3.90;65.33;100158.63;4396241;32;35615;-91
2021/11/25 05:59:38;;;;;;;;;;;;;;;3.65;66.23;100144.94;4395845;32;34069;-91
2021/11/25 06:02:20;;;;;;;;;;;;;;;3.29;67.44;100142.66;4416827;32;33111;-91
2021/11/25 06:05:02;;;;;;;;;;;;;;;3.63;66.59;100142.34;4411555;32;33715;-90
2021/11/25 06:07:32;;;;;;;;;;;;;;;3.36;67.49;100155.66;4408323;32;33584;-91
2021/11/25 06:10:11;;;;;;;;;;;;;;;3.87;65.79;100149.06;4420256;32;32974;-89
2021/11/25 06:13:03;;;;;;;;;;;;;;;3.98;65.46;100144.56;4391253;32;32287;-94
2021/11/25 06:15:43;;;;;;;;;;;;;;;3.98;65.81;100143.72;4413875;32;33796;-93
2021/11/25 06:18:37;;;;;;;;;;;;;;;3.63;66.60;100142.34;4390221;32;34671;-92
2021/11/25 06:21:16;;;;;;;;;;;;;;;3.67;66.87;100138.84;4410588;32;33148;-95
2021/11/25 06:28:14;;;;;;;;;;;;;;;3.69;66.87;100139.66;4399400;32;35276;-89
2021/11/25 06:30:43;;;;;;;;;;;;;;;3.71;66.92;100143.16;4392956;32;33745;-93
2021/11/25 06:33:22;;;;;;;;;;;;;;;3.62;67.38;100138.00;4377329;32;34013;-92
2021/11/25 06:36:13;;;;;;;;;;;;;;;4.11;65.97;100145.31;4357967;32;31718;-93
2021/11/25 06:38:52;;;;;;;;;;;;;;;4.36;64.87;100143.25;4403760;32;34029;-92
2021/11/25 06:41:43;;;;;;;;;;;;;;;4.17;65.72;100140.00;4380272;32;32401;-91
2021/11/25 06:44:37;;;;;;;;;;;;;;;4.43;64.87;100136.22;4384124;32;33607;-91
2021/11/25 06:47:28;;;;;;;;;;;;;;;4.44;64.81;100136.16;4394074;32;31878;-91
2021/11/25 06:50:09;;;;;;;;;;;;;;;4.32;65.50;100139.81;4432862;32;33659;-91
2021/11/25 06:53:01;;;;;;;;;;;;;;;4.55;64.62;100126.41;4377845;32;32871;-93
2021/11/25 06:55:40;;;;;;;;;;;;;;;4.21;65.44;100136.47;4391772;32;33672;-87
2021/11/25 06:58:08;;;;;;;;;;;;;;;4.36;65.47;100132.78;4405449;32;32097;-87
2021/11/25 07:00:35;;;;;;;;;;;;;;;4.77;64.17;100132.22;4396771;32;33304;-86
2021/11/25 07:03:02;;;;;;;;;;;;;;;4.59;64.71;100133.34;4400529;32;32743;-86
2021/11/25 07:05:30;;;;;;;;;;;;;;;4.82;63.64;100125.16;4396626;32;33827;-86
2021/11/25 07:07:58;;;;;;;;;;;;;;;4.07;66.13;100138.38;4395536;32;31950;-86
2021/11/25 07:10:25;;;;;;;;;;;;;;;4.09;66.29;100137.50;4393046;32;32925;-86
2021/11/25 07:12:53;;;;;;;;;;;;;;;4.50;65.10;100136.09;4415335;32;34265;-86
2021/11/25 07:15:21;;;;;;;;;;;;;;;4.22;65.82;100130.34;4389007;32;32827;-87
2021/11/25 07:17:48;;;;;;;;;;;;;;;4.20;65.59;100124.28;4410693;32;33403;-86
2021/11/25 07:20:20;;;;;;;;;;;;;;;4.47;65.19;100132.66;4397820;32;34053;-86
2021/11/25 07:22:47;;;;;;;;;;;;;;;4.80;63.82;100124.34;4401501;32;34134;-86
2021/11/25 07:25:18;;;;;;;;;;;;;;;4.16;65.97;100122.59;4400993;32;34143;-86
2021/11/25 07:27:55;;;;;;;;;;;;;;;4.22;66.00;100127.72;4401963;32;33544;-86
2021/11/25 07:30:25;;;;;;;;;;;;;;;4.06;66.74;100124.44;4385255;32;32851;-86
2021/11/25 07:32:52;;;;;;;;;;;;;;;3.99;66.98;100124.56;4400674;32;32828;-86
2021/11/25 07:35:20;;;;;;;;;;;;;;;4.24;66.21;100131.22;4401583;32;33399;-87
2021/11/25 07:37:48;;;;;;;;;;;;;;;4.40;65.64;100125.78;4400894;32;33186;-87
2021/11/25 07:40:15;;;;;;;;;;;;;;;4.22;66.15;100119.03;4411200;32;33773;-87
2021/11/25 07:42:43;;;;;;;;;;;;;;;4.24;66.16;100115.53;4396439;32;34523;-86
2021/11/25 07:45:11;;;;;;;;;;;;;;;4.42;65.65;100126.62;4415677;32;34507;-85
2021/11/25 07:47:38;;;;;;;;;;;;;;;4.33;66.04;100107.56;4411001;32;33490;-86
2021/11/25 07:50:10;;;;;;;;;;;;;;;4.85;64.58;100103.34;4402661;32;32869;-86
2021/11/25 07:52:38;;;;;;;;;;;;;;;4.45;65.63;100093.44;4398445;32;33422;-86
2021/11/25 07:55:09;;;;;;;;;;;;;;;4.10;67.01;100099.16;4398688;32;32859;-86
2021/11/25 07:57:53;;;;;;;;;;;;;;;4.68;65.38;100090.50;4393056;32;32629;-86
2021/11/25 08:00:25;;;;;;;;;;;;;;;4.45;65.79;100084.75;4387980;32;32570;-86
2021/11/25 08:02:53;;;;;;;;;;;;;;;4.93;64.69;100084.87;4400705;32;33567;-86
2021/11/25 08:05:24;;;;;;;;;;;;;;;4.90;64.24;100079.72;4396373;32;34286;-86
2021/11/25 08:07:54;;;;;;;;;;;;;;;4.93;64.60;100066.56;4398733;32;31938;-86
2021/11/25 08:10:22;;;;;;;;;;;;;;;4.93;64.67;100058.72;4396868;32;34466;-86
2021/11/25 08:12:50;;;;;;;;;;;;;;;4.96;64.40;100058.69;4402134;32;34110;-86
2021/11/25 08:15:18;;;;;;;;;;;;;;;4.96;64.41;100058.69;4413341;32;33985;-85
2021/11/25 08:17:48;;;;;;;;;;;;;;;5.13;64.41;100060.13;4386260;32;33339;-86
2021/11/25 08:20:25;;;;;;;;;;;;;;;5.15;63.89;100057.47;4401393;32;34150;-86
2021/11/25 08:22:53;;;;;;;;;;;;;;;5.15;63.89;100049.63;4394889;32;33932;-86
2021/11/25 08:25:22;;;;;;;;;;;;;;;5.48;63.05;100036.81;4401611;32;32776;-86
2021/11/25 08:27:54;;;;;;;;;;;;;;;5.31;63.46;100045.81;4398325;32;32793;-86
2021/11/25 08:30:23;;;;;;;;;;;;;;;5.56;63.17;100032.28;4411306;32;34281;-86
2021/11/25 08:32:50;;;;;;;;;;;;;;;5.48;63.04;100031.56;4400641;32;33806;-85
2021/11/25 08:35:18;;;;;;;;;;;;;;;5.51;63.05;100037.63;4398751;32;33321;-86
2021/11/25 08:37:46;;;;;;;;;;;;;;;4.86;65.17;100035.28;4394919;32;32620;-86
2021/11/25 08:40:13;;;;;;;;;;;;;;;5.23;64.15;100028.56;4416897;32;33777;-86
2021/11/25 08:42:41;;;;;;;;;;;;;;;5.16;64.34;100027.78;4402850;32;33415;-85
2021/11/25 08:45:09;;;;;;;;;;;;;;;5.13;64.73;100030.47;4404773;32;33634;-86
2021/11/25 08:47:36;;;;;;;;;;;;;;;5.49;63.65;100022.81;4398300;32;33722;-86
2021/11/25 08:50:05;;;;;;;;;;;;;;;5.79;62.34;100010.84;4384574;32;34034;-86
2021/11/25 08:52:33;;;;;;;;;;;;;;;5.69;62.56;100011.94;4389095;32;32295;-85
2021/11/25 08:55:00;;;;;;;;;;;;;;;5.46;63.45;100007.13;4409041;32;34338;-86
2021/11/25 08:57:28;;;;;;;;;;;;;;;5.28;63.97;100009.25;4411400;32;32468;-86
2021/11/25 08:59:55;;;;;;;;;;;;;;;5.80;62.29;100013.44;4394245;32;34054;-86
2021/11/25 09:02:23;;;;;;;;;;;;;;;5.28;64.33;99998.75;4399640;32;33160;-86
2021/11/25 09:04:51;;;;;;;;;;;;;;;5.80;62.56;99991.63;4397904;32;34512;-86
2021/11/25 09:07:19;;;;;;;;;;;;;;;5.80;62.76;99989.00;4395888;32;33208;-86
2021/11/25 09:09:46;;;;;;;;;;;;;;;5.80;63.37;99984.63;4403036;32;33870;-86
2021/11/25 09:12:13;;;;;;;;;;;;;;;5.67;64.30;99991.00;4396930;32;34826;-86
2021/11/25 09:14:41;;;;;;;;;;;;;;;5.84;63.85;99985.41;4397990;32;34333;-85
2021/11/25 09:17:11;;;;;;;;;;;;;;;5.48;65.29;99989.66;4394657;32;32862;-85
2021/11/25 09:19:38;;;;;;;;;;;;;;;6.34;62.75;99972.97;4383986;32;32771;-86
2021/11/25 09:22:06;;;;;;;;;;;;;;;6.45;61.80;99975.31;4391714;32;33014;-86
2021/11/25 09:24:34;;;;;;;;;;;;;;;6.43;62.17;99971.88;4407802;32;33240;-86
2021/11/25 09:27:03;;;;;;;;;;;;;;;6.57;61.73;99975.03;4396716;32;32703;-86
2021/11/25 09:29:31;;;;;;;;;;;;;;;6.37;62.52;99968.50;4402051;32;32880;-86
2021/11/25 09:31:59;;;;;;;;;;;;;;;6.89;60.58;99967.22;4385133;32;33180;-86
2021/11/25 09:34:26;;;;;;;;;;;;;;;6.79;60.88;99977.97;4393262;32;33238;-86
2021/11/25 09:36:55;;;;;;;;;;;;;;;7.07;60.33;99980.75;4407302;32;34135;-86
2021/11/25 09:39:25;;;;;;;;;;;;;;;7.22;60.11;99966.38;4394917;32;32449;-86
2021/11/25 09:41:54;;;;;;;;;;;;;;;7.36;60.22;99965.06;4405608;32;33424;-86
2021/11/25 09:44:22;;;;;;;;;;;;;;;7.40;59.62;99956.19;4381069;32;33126;-86
2021/11/25 09:46:53;;;;;;;;;;;;;;;6.70;62.08;99958.09;4391681;32;32883;-86
2021/11/25 09:49:21;;;;;;;;;;;;;;;6.80;62.62;99961.34;4403961;32;33705;-86
2021/11/25 09:51:49;;;;;;;;;;;;;;;6.59;62.06;99957.47;4393382;32;34069;-87
2021/11/25 09:54:17;;;;;;;;;;;;;;;6.75;61.88;99948.34;4414464;32;34386;-86
2021/11/25 09:56:44;;;;;;;;;;;;;;;6.82;61.97;99939.37;4404591;32;33425;-86
2021/11/25 09:59:12;;;;;;;;;;;;;;;6.85;62.26;99934.06;4397611;32;33861;-86
2021/11/25 10:01:39;;;;;;;;;;;;;;;6.68;62.92;99928.38;4398128;32;33505;-85
2021/11/25 10:04:07;;;;;;;;;;;;;;;6.87;61.91;99921.75;4410749;32;34311;-85
2021/11/25 10:06:47;;;;;;;;;;;;;;;7.21;60.79;99915.56;4395786;32;32591;-86
2021/11/25 10:09:15;;;;;;;;;;;;;;;7.03;61.17;99918.75;4385296;32;33050;-86
2021/11/25 10:11:43;;;;;;;;;;;;;;;7.06;60.53;99900.25;4400404;32;33385;-86
2021/11/25 10:14:12;;;;;;;;;;;;;;;6.72;61.96;99910.81;4411552;32;34388;-86
2021/11/25 10:16:41;;;;;;;;;;;;;;;6.83;61.64;99901.72;4384842;32;33267;-85
2021/11/25 10:19:13;;;;;;;;;;;;;;;6.50;62.90;99900.00;4375418;32;32892;-86
2021/11/25 10:21:47;;;;;;;;;;;;;;;7.24;60.88;99889.25;4395460;32;32651;-86
2021/11/25 10:24:15;;;;;;;;;;;;;;;7.18;60.55;99892.03;4381061;32;34895;-85
2021/11/25 10:26:45;;;;;;;;;;;;;;;7.28;59.53;99875.12;4386920;32;33681;-86
2021/11/25 10:29:13;;;;;;;;;;;;;;;7.33;59.52;99881.09;4391222;32;34362;-86
2021/11/25 10:31:42;;;;;;;;;;;;;;;7.53;59.11;99869.13;4395339;32;33132;-86
2021/11/25 10:34:13;;;;;;;;;;;;;;;6.97;60.77;99869.84;4397512;32;33885;-85
2021/11/25 10:41:51;;;;;;;;;;;;;;;7.09;60.77;99858.16;4382181;32;34143;-85
2021/11/25 10:44:23;;;;;;;;;;;;;;;6.84;61.71;99848.37;4416025;32;35110;-86
2021/11/25 10:46:52;;;;;;;;;;;;;;;7.36;60.43;99840.75;4412401;32;32217;-86
2021/11/25 10:49:31;;;;;;;;;;;;;;;7.14;60.82;99851.88;4406352;32;32573;-85
2021/11/25 10:52:00;;;;;;;;;;;;;;;7.53;60.68;99830.56;4409287;32;35109;-86
2021/11/25 10:54:28;;;;;;;;;;;;;;;7.55;59.96;99841.03;4392406;32;32925;-86
2021/11/25 10:56:56;;;;;;;;;;;;;;;7.72;59.71;99833.50;4380412;32;32552;-86
2021/11/25 10:59:36;;;;;;;;;;;;;;;7.26;61.51;99837.50;4390133;32;34119;-86
2021/11/25 11:02:16;;;;;;;;;;;;;;;7.29;61.35;99834.81;4376879;32;33622;-86
2021/11/25 11:04:45;;;;;;;;;;;;;;;7.25;61.65;99827.91;4379829;32;34417;-85
2021/11/25 11:07:26;;;;;;;;;;;;;;;7.64;60.94;99811.84;4377020;32;32640;-86
2021/11/25 11:09:54;;;;;;;;;;;;;;;7.56;60.87;99800.72;4375490;32;33344;-86
2021/11/25 11:15:12;;;;;;;;;;;;;;;7.86;60.72;99794.47;4390288;32;34337;-85
2021/11/25 11:17:59;;;;;;;;;;;;;;;7.81;60.56;99788.50;4372591;32;33193;-86
2021/11/25 11:20:31;;;;;;;;;;;;;;;7.56;61.39;99777.09;4390450;32;34277;-86
2021/11/25 11:22:59;;;;;;;;;;;;;;;7.54;60.97;99784.12;4398363;32;34687;-86
2021/11/25 11:25:28;;;;;;;;;;;;;;;7.92;60.22;99778.50;4385897;32;33197;-86
2021/11/25 11:27:56;;;;;;;;;;;;;;;7.72;61.51;99778.28;4377342;32;32578;-86
2021/11/25 11:30:24;;;;;;;;;;;;;;;7.32;62.27;99766.44;4385315;32;33558;-86
2021/11/25 11:32:52;;;;;;;;;;;;;;;7.83;61.63;99762.16;4386713;32;32784;-86
2021/11/25 11:35:22;;;;;;;;;;;;;;;7.85;61.14;99755.09;4387406;32;34116;-86
2021/11/25 11:37:54;;;;;;;;;;;;;;;8.36;59.51;99752.50;4373765;32;32627;-86
2021/11/25 11:40:23;;;;;;;;;;;;;;;8.15;59.99;99764.56;4389594;32;34603;-86
2021/11/25 11:42:51;;;;;;;;;;;;;;;8.14;60.25;99760.22;4391119;32;34632;-86
2021/11/25 11:45:20;;;;;;;;;;;;;;;7.81;61.58;99756.97;4390534;32;34402;-86
2021/11/25 11:47:51;;;;;;;;;;;;;;;8.25;60.52;99753.75;4378928;32;32239;-86
2021/11/25 11:50:20;;;;;;;;;;;;;;;8.20;61.67;99746.00;4389856;32;34931;-85
2021/11/25 11:52:56;;;;;;;;;;;;;;;8.18;60.99;99742.59;4391776;32;33641;-86
2021/11/25 11:55:28;;;;;;;;;;;;;;;8.81;59.28;99730.66;4389992;32;34552;-85
2021/11/25 11:57:56;;;;;;;;;;;;;;;8.08;61.23;99739.41;4378804;32;32438;-86
2021/11/25 12:00:23;;;;;;;;;;;;;;;8.26;60.54;99732.66;4384995;32;32502;-86
2021/11/25 12:02:51;;;;;;;;;;;;;;;8.64;59.75;99738.31;4411321;32;34141;-86
2021/11/25 12:05:37;;;;;;;;;;;;;;;8.29;60.27;99740.44;4396513;32;33279;-86
2021/11/25 12:08:30;;;;;;;;;;;;;;;8.58;60.29;99736.78;4405768;32;33019;-86
2021/11/25 12:11:01;;;;;;;;;;;;;;;8.31;59.76;99737.72;4394154;32;32675;-86
2021/11/25 12:13:41;;;;;;;;;;;;;;;8.18;60.86;99732.06;4398309;32;33966;-85
2021/11/25 12:16:20;;;;;;;;;;;;;;;8.38;59.95;99721.72;4396019;32;34582;-86
2021/11/25 12:18:55;;;;;;;;;;;;;;;8.31;59.99;99722.84;4396711;32;32595;-86
2021/11/25 12:21:33;;;;;;;;;;;;;;;8.65;58.99;99716.38;4398060;32;34130;-86
2021/11/25 12:24:20;;;;;;;;;;;;;;;8.21;59.97;99708.25;4397064;32;33529;-86
2021/11/25 12:27:00;;;;;;;;;;;;;;;8.18;60.68;99703.13;4393340;32;33084;-86
2021/11/25 12:29:31;;;;;;;;;;;;;;;8.45;59.56;99701.28;4400176;32;31943;-86
2021/11/25 12:32:27;;;;;;;;;;;;;;;8.39;59.90;99699.75;4399215;32;33668;-86
2021/11/25 12:35:02;;;;;;;;;;;;;;;8.53;59.59;99696.63;4409417;32;33232;-86
2021/11/25 12:37:46;;;;;;;;;;;;;;;8.20;60.72;99696.03;4392171;32;33439;-85
2021/11/25 12:40:45;;;;;;;;;;;;;;;8.29;60.48;99693.06;4400901;32;32900;-85
2021/11/25 12:43:13;;;;;;;;;;;;;;;8.25;60.35;99691.47;4383082;32;33881;-85
2021/11/25 12:45:45;;;;;;;;;;;;;;;8.45;59.60;99693.41;4388377;32;33734;-84
2021/11/25 12:48:17;;;;;;;;;;;;;;;8.25;61.19;99691.47;4385290;32;34141;-85
2021/11/25 12:50:45;;;;;;;;;;;;;;;9.04;58.57;99674.50;4397986;32;33254;-85
2021/11/25 12:53:13;;;;;;;;;;;;;;;8.90;58.63;99669.75;4401221;32;33684;-85
2021/11/25 12:55:41;;;;;;;;;;;;;;;8.46;59.92;99667.06;4380043;32;33742;-85
2021/11/25 12:58:09;;;;;;;;;;;;;;;8.85;59.32;99657.69;4394950;32;34369;-85
2021/11/25 13:00:43;;;;;;;;;;;;;;;8.27;60.54;99660.72;4385684;32;32339;-85
2021/11/25 13:03:11;;;;;;;;;;;;;;;8.29;60.71;99655.41;4378370;32;32943;-85
2021/11/25 13:05:39;;;;;;;;;;;;;;;8.34;60.69;99650.81;4394945;32;34316;-85
2021/11/25 13:08:09;;;;;;;;;;;;;;;8.19;61.39;99645.22;4382291;32;33316;-85
2021/11/25 13:10:38;;;;;;;;;;;;;;;8.28;61.25;99649.28;4383264;32;32923;-85
2021/11/25 13:13:12;;;;;;;;;;;;;;;8.39;60.78;99639.22;4386475;32;33067;-85
2021/11/25 13:15:52;;;;;;;;;;;;;;;8.54;60.59;99639.56;4397333;32;34173;-85
2021/11/25 13:18:20;;;;;;;;;;;;;;;8.76;59.45;99637.00;4384198;32;34193;-85
2021/11/25 13:20:49;;;;;;;;;;;;;;;8.33;60.34;99634.19;4395859;32;33521;-85
2021/11/25 13:23:17;;;;;;;;;;;;;;;8.70;58.97;99630.19;4397549;32;34235;-85
2021/11/25 13:26:03;;;;;;;;;;;;;;;8.33;59.40;99626.28;4395262;32;33920;-88
2021/11/25 13:28:34;;;;;;;;;;;;;;;8.57;59.26;99618.41;4387074;32;33322;-89
2021/11/25 13:31:12;;;;;;;;;;;;;;;8.15;60.16;99616.44;4389463;32;32335;-89
2021/11/25 13:34:01;;;;;;;;;;;;;;;8.35;59.65;99613.91;4373688;32;33024;-89
2021/11/25 13:36:38;;;;;;;;;;;;;;;8.66;58.85;99597.00;4385906;32;33943;-89
2021/11/25 13:39:08;;;;;;;;;;;;;;;8.91;57.81;99597.75;4387190;32;34373;-89
2021/11/25 13:41:36;;;;;;;;;;;;;;;8.48;59.03;99589.81;4381632;32;34143;-89
2021/11/25 13:44:03;;;;;;;;;;;;;;;8.60;58.80;99592.00;4371170;32;34540;-89
2021/11/25 13:46:37;;;;;;;;;;;;;;;8.62;58.46;99590.16;4376456;32;33075;-89
2021/11/25 13:49:05;;;;;;;;;;;;;;;8.45;58.95;99593.41;4387322;32;33497;-89
2021/11/25 13:51:33;;;;;;;;;;;;;;;8.39;60.10;99588.41;4387068;32;33033;-90
2021/11/25 13:54:21;;;;;;;;;;;;;;;8.93;57.64;99577.50;4402892;32;33779;-90
2021/11/25 13:56:53;;;;;;;;;;;;;;;8.39;58.94;99570.84;4395317;32;33483;-90
2021/11/25 13:59:31;;;;;;;;;;;;;;;7.96;60.17;99572.41;4387254;32;33204;-90
2021/11/25 14:02:00;;;;;;;;;;;;;;;8.37;59.08;99566.56;4401571;32;32232;-90
2021/11/25 14:04:44;;;;;;;;;;;;;;;8.18;59.53;99575.13;4394718;32;32704;-89
2021/11/25 14:07:23;;;;;;;;;;;;;;;8.27;59.57;99571.28;4392114;32;33464;-90
2021/11/25 14:10:28;;;;;;;;;;;;;;;8.66;58.09;99566.28;4381863;32;34474;-87
2021/11/25 14:12:58;;;;;;;;;;;;;;;8.66;58.09;99554.91;4380100;32;33545;-90